createdAt,value
2022-11-19T00:01:26.244Z,97497.72
2022-11-19T00:03:53.553Z,97494.59
2022-11-19T00:06:26.403Z,97498.22
2022-11-19T00:08:53.737Z,97501.53
2022-11-19T00:11:42.884Z,97498.72
2022-11-19T00:14:12.718Z,97502.31
2022-11-19T00:16:39.744Z,97505.03
2022-11-19T00:19:06.445Z,97502.16
2022-11-19T00:21:33.098Z,97507.00
2022-11-19T00:23:59.796Z,97510.56
2022-11-19T00:26:26.940Z,97503.75
2022-11-19T00:28:54.979Z,97497.28
2022-11-19T00:31:21.589Z,97504.44
2022-11-19T00:33:50.463Z,97508.31
2022-11-19T00:36:17.652Z,97520.63
2022-11-19T00:38:44.376Z,97520.81
2022-11-19T00:41:11.425Z,97522.84
2022-11-19T00:43:47.366Z,97527.66
2022-11-19T00:46:21.927Z,97522.22
2022-11-19T00:48:50.791Z,97533.88
2022-11-19T00:51:20.255Z,97524.66
2022-11-19T00:53:47.205Z,97534.41
2022-11-19T00:56:18.310Z,97539.84
2022-11-19T00:58:45.945Z,97548.84
2022-11-19T01:01:15.401Z,97544.97
2022-11-19T01:03:45.280Z,97546.13
2022-11-19T01:06:18.644Z,97550.53
2022-11-19T01:08:46.301Z,97554.03
2022-11-19T01:11:18.501Z,97550.28
2022-11-19T01:13:46.193Z,97546.19
2022-11-19T01:16:20.173Z,97560.22
2022-11-19T01:18:49.662Z,97553.72
2022-11-19T01:21:18.725Z,97559.75
2022-11-19T01:23:46.344Z,97563.03
2022-11-19T01:26:14.996Z,97568.91
2022-11-19T01:28:42.778Z,97564.53
2022-11-19T01:31:21.349Z,97565.84
2022-11-19T01:33:50.451Z,97567.63
2022-11-19T01:36:21.875Z,97569.53
2022-11-19T01:38:52.002Z,97576.53
2022-11-19T01:41:31.017Z,97567.56
2022-11-19T01:44:05.491Z,97577.19
2022-11-19T01:46:36.468Z,97574.03
2022-11-19T01:49:19.396Z,97578.44
2022-11-19T01:51:55.727Z,97582.13
2022-11-19T01:54:40.915Z,97576.66
2022-11-19T01:57:14.418Z,97580.75
2022-11-19T01:59:43.545Z,97579.22
2022-11-19T02:02:10.229Z,97587.28
2022-11-19T02:04:36.821Z,97581.91
2022-11-19T02:07:04.280Z,97592.88
2022-11-19T02:09:32.769Z,97582.84
2022-11-19T02:12:08.316Z,97589.56
2022-11-19T02:15:15.646Z,97585.94
2022-11-19T02:18:10.908Z,97594.41
2022-11-19T02:21:20.591Z,97600.56
2022-11-19T02:24:21.709Z,97603.25
2022-11-19T02:27:05.635Z,97600.91
2022-11-19T02:29:32.024Z,97606.06
2022-11-19T02:32:28.425Z,97615.81
2022-11-19T02:35:44.865Z,97612.66
2022-11-19T02:38:26.445Z,97609.66
2022-11-19T02:41:23.017Z,97604.66
2022-11-19T02:44:17.672Z,97613.97
2022-11-19T02:46:49.638Z,97615.25
2022-11-19T02:49:22.275Z,97619.25
2022-11-19T02:51:50.455Z,97621.16
2022-11-19T02:54:17.811Z,97623.81
2022-11-19T02:56:51.955Z,97621.94
2022-11-19T03:00:11.799Z,97629.59
2022-11-19T03:03:31.992Z,97631.88
2022-11-19T03:06:09.877Z,97641.47
2022-11-19T03:08:36.707Z,97645.47
2022-11-19T03:11:10.233Z,97651.00
2022-11-19T03:14:29.602Z,97649.00
2022-11-19T03:17:06.582Z,97643.63
2022-11-19T03:19:43.096Z,97636.63
2022-11-19T03:22:26.780Z,97641.84
2022-11-19T03:25:12.197Z,97633.53
2022-11-19T03:27:46.417Z,97634.47
2022-11-19T03:30:16.480Z,97636.75
2022-11-19T03:33:00.866Z,97631.59
2022-11-19T03:35:35.075Z,97627.56
2022-11-19T03:38:07.319Z,97640.38
2022-11-19T03:40:35.391Z,97642.28
2022-11-19T03:43:08.075Z,97649.28
2022-11-19T03:45:43.221Z,97650.63
2022-11-19T03:48:15.383Z,97646.09
2022-11-19T03:50:53.426Z,97640.69
2022-11-19T03:53:22.105Z,97643.25
2022-11-19T03:56:00.270Z,97651.38
2022-11-19T03:58:27.440Z,97653.09
2022-11-19T04:00:54.204Z,97661.34
2022-11-19T04:03:20.707Z,97656.69
2022-11-19T04:05:47.609Z,97669.50
2022-11-19T04:08:14.265Z,97664.63
2022-11-19T04:10:40.753Z,97663.69
2022-11-19T04:13:07.212Z,97668.47
2022-11-19T04:15:33.706Z,97678.34
2022-11-19T04:18:00.144Z,97672.75
2022-11-19T04:20:26.674Z,97681.91
2022-11-19T04:22:53.166Z,97681.47
2022-11-19T04:25:19.677Z,97688.53
2022-11-19T04:27:46.955Z,97690.22
2022-11-19T04:30:14.785Z,97684.69
2022-11-19T04:32:42.277Z,97685.00
2022-11-19T04:35:10.052Z,97686.25
2022-11-19T04:37:36.809Z,97680.06
2022-11-19T04:40:03.884Z,97679.22
2022-11-19T04:42:30.310Z,97689.56
2022-11-19T04:44:56.868Z,97675.94
2022-11-19T04:47:23.290Z,97677.75
2022-11-19T04:49:49.794Z,97677.59
2022-11-19T04:52:16.273Z,97681.38
2022-11-19T04:54:42.777Z,97683.88
2022-11-19T04:57:09.247Z,97693.97
2022-11-19T04:59:35.762Z,97697.50
2022-11-19T05:02:02.528Z,97693.16
2022-11-19T05:04:29.013Z,97695.31
2022-11-19T05:06:55.523Z,97686.72
2022-11-19T05:09:22.391Z,97694.75
2022-11-19T05:11:48.962Z,97699.56
2022-11-19T05:14:15.433Z,97692.59
2022-11-19T05:16:41.911Z,97692.91
2022-11-19T05:19:08.375Z,97689.16
2022-11-19T05:21:34.909Z,97692.06
2022-11-19T05:24:01.417Z,97694.41
2022-11-19T05:26:27.898Z,97695.25
2022-11-19T05:28:54.365Z,97700.94
2022-11-19T05:31:21.003Z,97694.38
2022-11-19T05:33:47.481Z,97692.94
2022-11-19T05:36:14.120Z,97702.25
2022-11-19T05:38:41.118Z,97713.91
2022-11-19T05:41:07.609Z,97711.28
2022-11-19T05:43:34.162Z,97721.25
2022-11-19T05:46:02.370Z,97719.53
2022-11-19T05:48:30.215Z,97725.13
2022-11-19T05:50:56.957Z,97726.97
2022-11-19T05:53:23.460Z,97717.72
2022-11-19T05:55:49.900Z,97719.53
2022-11-19T05:58:16.372Z,97725.53
2022-11-19T06:00:42.881Z,97728.28
2022-11-19T06:03:10.800Z,97742.97
2022-11-19T06:05:40.487Z,97737.91
2022-11-19T06:08:07.366Z,97747.72
2022-11-19T06:10:33.979Z,97734.91
2022-11-19T06:13:00.453Z,97733.78
2022-11-19T06:15:26.960Z,97733.88
2022-11-19T06:17:53.439Z,97727.75
2022-11-19T06:20:19.901Z,97735.00
2022-11-19T06:22:46.324Z,97736.63
2022-11-19T06:25:13.296Z,97737.59
2022-11-19T06:27:39.755Z,97745.72
2022-11-19T06:30:07.857Z,97743.19
2022-11-19T06:32:34.449Z,97750.59
2022-11-19T06:35:01.058Z,97744.31
2022-11-19T06:37:27.532Z,97749.97
2022-11-19T06:39:55.285Z,97754.41
2022-11-19T06:42:38.194Z,97753.56
2022-11-19T06:45:12.130Z,97751.91
2022-11-19T06:47:41.198Z,97749.06
2022-11-19T06:50:10.478Z,97753.56
2022-11-19T06:52:37.360Z,97752.38
2022-11-19T06:55:04.716Z,97752.22
2022-11-19T06:57:31.340Z,97766.06
2022-11-19T06:59:57.851Z,97763.91
2022-11-19T07:02:24.325Z,97763.78
2022-11-19T07:04:50.829Z,97766.47
2022-11-19T07:07:17.720Z,97773.53
2022-11-19T07:09:44.476Z,97777.53
2022-11-19T07:12:10.939Z,97772.19
2022-11-19T07:14:37.414Z,97773.53
2022-11-19T07:17:05.240Z,97769.41
2022-11-19T07:19:31.815Z,97783.81
2022-11-19T07:21:58.272Z,97779.31
2022-11-19T07:24:24.783Z,97780.97
2022-11-19T07:26:51.299Z,97790.41
2022-11-19T07:29:18.421Z,97788.88
2022-11-19T07:31:46.830Z,97793.75
2022-11-19T07:34:13.332Z,97798.34
2022-11-19T07:36:39.863Z,97793.47
2022-11-19T07:39:06.516Z,97799.88
2022-11-19T07:41:52.308Z,97800.75
2022-11-19T07:44:19.194Z,97808.41
2022-11-19T07:46:45.875Z,97807.81
2022-11-19T07:49:12.376Z,97802.09
2022-11-19T07:51:38.909Z,97815.41
2022-11-19T07:54:05.658Z,97819.53
2022-11-19T07:56:32.327Z,97825.78
2022-11-19T07:59:02.229Z,97829.19
2022-11-19T08:01:29.351Z,97835.00
2022-11-19T08:03:56.922Z,97838.75
2022-11-19T08:06:27.069Z,97837.69
2022-11-19T08:08:58.325Z,97835.88
2022-11-19T08:11:25.313Z,97835.41
2022-11-19T08:13:52.771Z,97833.25
2022-11-19T08:16:38.875Z,97836.94
2022-11-19T08:19:12.462Z,97835.47
2022-11-19T08:21:45.425Z,97841.06
2022-11-19T08:24:14.204Z,97830.66
2022-11-19T08:26:42.562Z,97836.00
2022-11-19T08:29:15.726Z,97846.28
2022-11-19T08:31:44.940Z,97850.00
2022-11-19T08:34:11.494Z,97852.16
2022-11-19T08:36:37.984Z,97851.16
2022-11-19T08:39:04.586Z,97851.25
2022-11-19T08:41:49.621Z,97849.69
2022-11-19T08:44:17.803Z,97856.53
2022-11-19T08:46:44.773Z,97850.72
2022-11-19T08:49:12.360Z,97853.63
2022-11-19T08:51:39.415Z,97856.38
2022-11-19T08:54:06.170Z,97857.75
2022-11-19T08:56:33.157Z,97850.63
2022-11-19T08:59:02.781Z,97854.53
2022-11-19T09:01:29.889Z,97856.44
2022-11-19T09:03:56.372Z,97861.28
2022-11-19T09:06:23.274Z,97858.06
2022-11-19T09:08:49.741Z,97865.69
2022-11-19T09:11:19.904Z,97861.56
2022-11-19T09:13:46.776Z,97872.06
2022-11-19T09:16:13.793Z,97867.88
2022-11-19T09:18:42.087Z,97879.25
2022-11-19T09:21:11.595Z,97880.66
2022-11-19T09:23:39.324Z,97882.38
2022-11-19T09:26:10.740Z,97886.47
2022-11-19T09:28:37.229Z,97889.59
2022-11-19T09:31:17.243Z,97880.84
2022-11-19T09:33:48.370Z,97887.59
2022-11-19T09:36:15.738Z,97891.53
2022-11-19T09:38:42.609Z,97894.81
2022-11-19T09:41:17.993Z,97895.13
2022-11-19T09:44:18.689Z,97898.31
2022-11-19T09:46:45.260Z,97907.50
2022-11-19T09:49:21.865Z,97901.78
2022-11-19T09:51:57.807Z,97910.47
2022-11-19T09:54:25.519Z,97899.63
2022-11-19T09:57:00.376Z,97906.13
2022-11-19T09:59:40.817Z,97914.41
2022-11-19T10:02:21.823Z,97922.16
2022-11-19T10:04:51.060Z,97917.94
2022-11-19T10:07:30.972Z,97910.59
2022-11-19T10:10:42.174Z,97917.31
2022-11-19T10:13:30.336Z,97921.63
2022-11-19T10:16:29.277Z,97921.69
2022-11-19T10:19:38.878Z,97925.66
2022-11-19T10:22:16.740Z,97932.06
2022-11-19T10:25:03.611Z,97930.66
2022-11-19T10:27:43.607Z,97939.75
2022-11-19T10:30:19.262Z,97943.91
2022-11-19T10:33:12.817Z,97935.03
2022-11-19T10:35:48.313Z,97936.00
2022-11-19T10:38:33.876Z,97942.97
2022-11-19T10:41:18.849Z,97937.78
2022-11-19T10:43:57.390Z,97935.16
2022-11-19T10:46:28.566Z,97940.09
2022-11-19T10:48:58.951Z,97938.34
2022-11-19T10:51:33.416Z,97930.84
2022-11-19T10:54:04.457Z,97932.16
2022-11-19T10:56:42.136Z,97926.78
2022-11-19T10:59:18.965Z,97925.59
2022-11-19T11:01:55.858Z,97930.66
2022-11-19T11:04:24.495Z,97934.44
2022-11-19T11:06:55.089Z,97934.84
2022-11-19T11:09:40.663Z,97926.25
2022-11-19T11:12:37.070Z,97926.56
2022-11-19T11:15:22.306Z,97922.53
2022-11-19T11:18:02.564Z,97923.97
2022-11-19T11:20:30.455Z,97924.84
2022-11-19T11:23:18.042Z,97922.09
2022-11-19T11:26:11.622Z,97916.81
2022-11-19T11:29:22.884Z,97918.06
2022-11-19T11:31:50.441Z,97919.13
2022-11-19T11:34:25.882Z,97919.50
2022-11-19T11:36:53.888Z,97916.66
2022-11-19T11:39:44.183Z,97923.94
2022-11-19T11:42:17.675Z,97921.25
2022-11-19T11:45:22.780Z,97911.66
2022-11-19T11:47:49.289Z,97915.88
2022-11-19T11:50:25.077Z,97917.59
2022-11-19T11:52:55.672Z,97919.03
2022-11-19T11:55:24.933Z,97920.56
2022-11-19T11:58:01.453Z,97925.91
2022-11-19T12:00:29.821Z,97917.94
2022-11-19T12:03:01.994Z,97920.44
2022-11-19T12:06:02.221Z,97920.06
2022-11-19T12:08:56.246Z,97926.84
2022-11-19T12:11:55.155Z,97926.91
2022-11-19T12:15:03.280Z,97927.59
2022-11-19T12:18:06.626Z,97927.22
2022-11-19T12:20:59.172Z,97929.59
2022-11-19T12:23:57.728Z,97923.91
2022-11-19T12:26:58.721Z,97929.41
2022-11-19T12:29:49.914Z,97928.59
2022-11-19T12:33:02.858Z,97926.69
2022-11-19T12:36:04.876Z,97924.81
2022-11-19T12:38:44.901Z,97922.38
2022-11-19T12:41:30.101Z,97919.63
2022-11-19T12:44:09.637Z,97908.59
2022-11-19T12:47:08.240Z,97916.72
2022-11-19T12:50:09.365Z,97911.84
2022-11-19T12:53:13.038Z,97911.22
2022-11-19T12:55:54.495Z,97910.31
2022-11-19T12:58:45.805Z,97916.06
2022-11-19T13:01:26.436Z,97910.88
2022-11-19T13:04:26.283Z,97909.22
2022-11-19T13:07:15.247Z,97912.09
2022-11-19T13:09:48.815Z,97919.00
2022-11-19T13:12:21.573Z,97917.34
2022-11-19T13:14:56.656Z,97907.00
2022-11-19T13:17:34.852Z,97908.59
2022-11-19T13:20:07.576Z,97908.44
2022-11-19T13:22:39.811Z,97910.03
2022-11-19T13:25:25.102Z,97917.69
2022-11-19T13:27:55.854Z,97919.38
2022-11-19T13:30:29.423Z,97921.31
2022-11-19T13:33:43.675Z,97921.31
2022-11-19T13:36:26.843Z,97924.59
2022-11-19T13:39:18.442Z,97922.03
2022-11-19T13:42:15.333Z,97927.56
2022-11-19T13:44:43.443Z,97920.50
2022-11-19T13:47:27.671Z,97933.09
2022-11-19T13:50:03.076Z,97936.19
2022-11-19T13:52:52.667Z,97939.09
2022-11-19T13:55:43.097Z,97934.31
2022-11-19T13:58:26.761Z,97938.31
2022-11-19T14:01:11.848Z,97938.69
2022-11-19T14:04:36.019Z,97940.88
2022-11-19T14:08:03.450Z,97943.34
2022-11-19T14:10:57.778Z,97943.69
2022-11-19T14:13:54.531Z,97939.88
2022-11-19T14:17:12.860Z,97938.19
2022-11-19T14:20:15.431Z,97942.59
2022-11-19T14:23:15.114Z,97939.66
2022-11-19T14:26:06.554Z,97935.81
2022-11-19T14:28:52.977Z,97932.34
2022-11-19T14:31:21.363Z,97938.97
2022-11-19T14:33:47.714Z,97936.13
2022-11-19T14:36:36.141Z,97938.03
2022-11-19T14:39:11.946Z,97944.00
2022-11-19T14:41:44.619Z,97945.22
2022-11-19T14:44:26.563Z,97942.00
2022-11-19T14:46:53.101Z,97949.16
2022-11-19T14:49:29.380Z,97948.81
2022-11-19T14:51:58.037Z,97955.94
2022-11-19T14:54:39.624Z,97948.47
2022-11-19T14:57:31.997Z,97947.06
2022-11-19T15:00:05.036Z,97952.63
2022-11-19T15:02:39.883Z,97950.53
2022-11-19T15:05:14.661Z,97948.47
2022-11-19T15:07:50.074Z,97954.59
2022-11-19T15:10:20.784Z,97952.44
2022-11-19T15:13:01.324Z,97959.34
2022-11-19T15:15:41.965Z,97956.25
2022-11-19T15:18:27.236Z,97955.03
2022-11-19T15:21:40.448Z,97951.22
2022-11-19T15:24:25.103Z,97962.31
2022-11-19T15:27:00.763Z,97968.13
2022-11-19T15:30:04.939Z,97970.69
2022-11-19T15:32:58.921Z,97965.63
2022-11-19T15:36:03.387Z,97960.88
2022-11-19T15:39:01.337Z,97968.69
2022-11-19T15:41:36.536Z,97960.00
2022-11-19T15:44:12.296Z,97961.97
2022-11-19T15:46:56.309Z,97960.34
2022-11-19T15:49:28.169Z,97964.84
2022-11-19T15:52:14.618Z,97968.06
2022-11-19T15:54:44.408Z,97963.50
2022-11-19T15:57:17.040Z,97969.31
2022-11-19T15:59:54.193Z,97962.22
2022-11-19T16:02:35.183Z,97969.78
2022-11-19T16:05:01.730Z,97978.34
2022-11-19T16:07:30.286Z,97976.00
2022-11-19T16:09:59.248Z,97978.16
2022-11-19T16:12:47.094Z,97977.34
2022-11-19T16:15:44.137Z,97972.97
2022-11-19T16:18:19.613Z,97978.22
2022-11-19T16:20:51.371Z,97971.97
2022-11-19T16:23:25.197Z,97974.19
2022-11-19T16:25:53.244Z,97972.84
2022-11-19T16:28:27.568Z,97977.41
2022-11-19T16:31:02.919Z,97980.34
2022-11-19T16:33:32.273Z,97966.97
2022-11-19T16:36:17.872Z,97968.78
2022-11-19T16:38:51.425Z,97968.78
2022-11-19T16:41:41.572Z,97974.72
2022-11-19T16:44:15.936Z,97979.91
2022-11-19T16:46:42.955Z,97981.34
2022-11-19T16:49:40.002Z,97982.88
2022-11-19T16:52:09.825Z,97980.13
2022-11-19T16:54:50.252Z,97977.84
2022-11-19T16:57:23.778Z,97972.19
2022-11-19T16:59:56.071Z,97977.47
2022-11-19T17:02:40.164Z,97973.84
2022-11-19T17:05:14.467Z,97978.47
2022-11-19T17:07:46.049Z,97976.13
2022-11-19T17:10:12.473Z,97980.28
2022-11-19T17:13:14.610Z,97982.97
2022-11-19T17:15:46.968Z,97979.16
2022-11-19T17:18:33.172Z,97978.88
2022-11-19T17:21:08.253Z,97981.56
2022-11-19T17:23:47.806Z,97985.50
2022-11-19T17:26:27.328Z,97989.16
2022-11-19T17:29:20.439Z,98000.84
2022-11-19T17:31:49.154Z,97998.25
2022-11-19T17:34:26.004Z,97992.69
2022-11-19T17:36:52.474Z,97994.66
2022-11-19T17:39:25.008Z,97997.78
2022-11-19T17:42:15.197Z,98000.84
2022-11-19T17:44:42.118Z,97986.94
2022-11-19T17:47:22.316Z,97994.16
2022-11-19T17:49:50.924Z,97999.59
2022-11-19T17:52:22.565Z,98000.22
2022-11-19T17:54:50.361Z,98010.63
2022-11-19T17:57:16.874Z,97997.91
2022-11-19T17:59:43.424Z,98000.03
2022-11-19T18:02:19.306Z,97997.06
2022-11-19T18:04:48.166Z,98003.19
2022-11-19T18:07:15.768Z,98004.59
2022-11-19T18:09:42.396Z,98010.28
2022-11-19T18:12:19.044Z,98009.09
2022-11-19T18:14:47.417Z,98017.84
2022-11-19T18:17:15.481Z,98013.00
2022-11-19T18:19:42.274Z,98020.06
2022-11-19T18:22:20.476Z,98027.66
2022-11-19T18:24:49.321Z,98018.13
2022-11-19T18:27:16.931Z,98029.41
2022-11-19T18:29:43.651Z,98026.09
2022-11-19T18:32:15.877Z,98024.16
2022-11-19T18:34:43.760Z,98033.53
2022-11-19T18:37:10.689Z,98032.47
2022-11-19T18:39:37.727Z,98027.88
2022-11-19T18:42:04.375Z,98030.00
2022-11-19T18:44:33.582Z,98026.09
2022-11-19T18:47:07.769Z,98029.09
2022-11-19T18:49:34.934Z,98027.28
2022-11-19T18:52:07.345Z,98025.25
2022-11-19T18:54:34.233Z,98026.78
2022-11-19T18:57:01.051Z,98027.16
2022-11-19T18:59:28.008Z,98028.41
2022-11-19T19:01:55.612Z,98033.47
2022-11-19T19:04:23.199Z,98024.63
2022-11-19T19:06:50.147Z,98026.75
2022-11-19T19:09:20.345Z,98028.97
2022-11-19T19:12:13.067Z,98030.16
2022-11-19T19:14:41.516Z,98033.59
2022-11-19T19:17:08.149Z,98032.75
2022-11-19T19:19:34.633Z,98038.75
2022-11-19T19:22:01.687Z,98043.25
2022-11-19T19:24:28.221Z,98044.94
2022-11-19T19:26:54.740Z,98041.63
2022-11-19T19:29:21.615Z,98047.06
2022-11-19T19:31:48.359Z,98042.59
2022-11-19T19:34:14.869Z,98037.84
2022-11-19T19:36:47.656Z,98037.53
2022-11-19T19:39:16.731Z,98033.19
2022-11-19T19:41:43.311Z,98028.41
2022-11-19T19:44:10.351Z,98036.00
2022-11-19T19:46:36.992Z,98030.53
2022-11-19T19:49:03.659Z,98035.31
2022-11-19T19:51:32.499Z,98042.25
2022-11-19T19:53:59.739Z,98038.81
2022-11-19T19:56:32.656Z,98030.81
2022-11-19T19:59:00.978Z,98031.72
2022-11-19T20:01:33.908Z,98025.69
2022-11-19T20:04:05.178Z,98030.81
2022-11-19T20:06:33.038Z,98022.25
2022-11-19T20:09:02.038Z,98021.75
2022-11-19T20:11:31.164Z,98024.63
2022-11-19T20:13:58.560Z,98007.69
2022-11-19T20:16:29.556Z,98016.19
2022-11-19T20:18:58.476Z,98015.25
2022-11-19T20:21:28.628Z,98020.72
2022-11-19T20:23:55.409Z,98018.41
2022-11-19T20:26:25.798Z,98019.94
2022-11-19T20:29:06.893Z,98014.88
2022-11-19T20:31:34.669Z,98014.88
2022-11-19T20:34:04.934Z,98006.72
2022-11-19T20:36:35.212Z,98014.31
2022-11-19T20:39:02.243Z,98017.41
2022-11-19T20:41:47.782Z,98012.03
2022-11-19T20:44:23.243Z,98013.59
2022-11-19T20:47:00.872Z,98023.28
2022-11-19T20:49:40.869Z,98023.19
2022-11-19T20:52:08.135Z,98015.88
2022-11-19T20:54:34.691Z,98018.22
2022-11-19T20:57:01.426Z,98023.19
2022-11-19T20:59:28.505Z,98022.50
2022-11-19T21:01:56.984Z,98030.09
2022-11-19T21:04:26.977Z,98026.72
2022-11-19T21:06:54.147Z,98037.25
2022-11-19T21:09:21.551Z,98038.03
2022-11-19T21:11:48.486Z,98037.00
2022-11-19T21:14:14.956Z,98038.69
2022-11-19T21:16:41.419Z,98031.50
2022-11-19T21:19:10.433Z,98034.88
2022-11-19T21:21:37.255Z,98032.34
2022-11-19T21:24:04.020Z,98026.59
2022-11-19T21:26:30.935Z,98026.84
2022-11-19T21:28:59.434Z,98035.56
2022-11-19T21:31:38.624Z,98036.69
2022-11-19T21:34:18.003Z,98036.28
2022-11-19T21:36:46.127Z,98033.59
2022-11-19T21:39:14.617Z,98036.53
2022-11-19T21:41:41.153Z,98033.72
2022-11-19T21:44:08.063Z,98030.28
2022-11-19T21:46:35.760Z,98028.34
2022-11-19T21:49:03.011Z,98029.53
2022-11-19T21:51:29.632Z,98030.38
2022-11-19T21:53:58.259Z,98022.38
2022-11-19T21:56:27.420Z,98017.06
2022-11-19T21:58:54.057Z,98022.16
2022-11-19T22:01:20.929Z,98021.66
2022-11-19T22:03:47.713Z,98016.59
2022-11-19T22:06:14.240Z,98002.81
2022-11-19T22:08:42.403Z,98006.53
2022-11-19T22:11:30.278Z,97999.16
2022-11-19T22:14:06.812Z,98007.91
2022-11-19T22:16:39.908Z,98010.78
2022-11-19T22:19:07.088Z,98008.56
2022-11-19T22:21:35.018Z,98005.59
2022-11-19T22:24:01.955Z,98005.81
2022-11-19T22:26:28.522Z,98011.63
2022-11-19T22:28:55.693Z,98014.50
2022-11-19T22:31:23.266Z,98012.81
2022-11-19T22:33:52.132Z,98012.31
2022-11-19T22:36:21.268Z,98007.03
2022-11-19T22:38:48.412Z,98009.28
2022-11-19T22:41:18.340Z,98007.69
2022-11-19T22:43:45.449Z,98013.78
2022-11-19T22:46:13.495Z,98008.25
2022-11-19T22:48:40.673Z,98010.94
2022-11-19T22:51:12.579Z,98011.88
2022-11-19T22:53:39.816Z,98007.44
2022-11-19T22:56:10.252Z,98013.34
2022-11-19T22:58:37.678Z,98008.88
2022-11-19T23:01:07.157Z,98011.84
2022-11-19T23:03:33.821Z,98015.88
2022-11-19T23:06:00.338Z,98008.06
2022-11-19T23:08:26.957Z,98005.69
2022-11-19T23:11:00.201Z,98011.84
2022-11-19T23:13:33.866Z,97998.72
2022-11-19T23:16:16.117Z,97999.56
2022-11-19T23:18:48.408Z,98000.94
2022-11-19T23:21:19.614Z,97998.91
2022-11-19T23:23:46.806Z,97991.50
2022-11-19T23:26:16.585Z,97995.47
2022-11-19T23:28:44.660Z,97991.63
2022-11-19T23:31:23.613Z,97991.84
2022-11-19T23:33:57.502Z,97995.16
2022-11-19T23:36:29.740Z,97997.91
2022-11-19T23:38:56.408Z,97988.66
2022-11-19T23:41:23.888Z,97987.94
2022-11-19T23:43:53.231Z,97991.97
2022-11-19T23:46:32.594Z,97999.69
2022-11-19T23:49:00.271Z,97995.88
2022-11-19T23:51:33.685Z,98001.66
2022-11-19T23:54:00.882Z,98003.00
2022-11-19T23:56:30.779Z,97991.72
2022-11-19T23:58:59.492Z,97994.84
